createdAt,value
2024-02-13T00:00:13.602Z,28.31
2024-02-13T00:01:13.691Z,28.32
2024-02-13T00:02:13.650Z,28.34
2024-02-13T00:03:13.730Z,28.35
2024-02-13T00:04:13.682Z,28.31
2024-02-13T00:05:13.757Z,28.34
2024-02-13T00:06:13.702Z,28.34
2024-02-13T00:07:13.707Z,28.34
2024-02-13T00:08:13.948Z,28.37
2024-02-13T00:09:13.737Z,28.35
2024-02-13T00:10:13.718Z,28.33
2024-02-13T00:11:13.848Z,28.34
2024-02-13T00:12:13.688Z,28.34
2024-02-13T00:13:13.743Z,28.35
2024-02-13T00:14:13.797Z,28.33
2024-02-13T00:15:13.763Z,28.33
2024-02-13T00:16:13.773Z,28.33
2024-02-13T00:17:13.781Z,28.32
2024-02-13T00:18:13.870Z,28.34
2024-02-13T00:19:13.849Z,28.35
2024-02-13T00:20:13.795Z,28.32
2024-02-13T00:21:13.805Z,28.34
2024-02-13T00:22:13.808Z,28.35
2024-02-13T00:23:13.853Z,28.35
2024-02-13T00:24:13.845Z,28.35
2024-02-13T00:25:13.913Z,28.35
2024-02-13T00:26:13.904Z,28.34
2024-02-13T00:27:13.858Z,28.33
2024-02-13T00:28:13.842Z,28.35
2024-02-13T00:29:13.842Z,28.35
2024-02-13T00:30:13.890Z,28.35
2024-02-13T00:31:13.899Z,28.34
2024-02-13T00:32:13.906Z,28.36
2024-02-13T00:33:13.967Z,28.35
2024-02-13T00:34:13.907Z,28.35
2024-02-13T00:35:13.922Z,28.32
2024-02-13T00:36:13.908Z,28.33
2024-02-13T00:37:13.923Z,28.34
2024-02-13T00:38:13.954Z,28.32
2024-02-13T00:39:13.916Z,28.33
2024-02-13T00:40:13.927Z,28.34
2024-02-13T00:41:13.976Z,28.34
2024-02-13T00:42:13.974Z,28.35
2024-02-13T00:43:13.933Z,28.35
2024-02-13T00:44:13.983Z,28.34
2024-02-13T00:45:13.965Z,28.35
2024-02-13T00:46:14.130Z,28.35
2024-02-13T00:47:13.990Z,28.33
2024-02-13T00:48:14.076Z,28.34
2024-02-13T00:49:14.022Z,28.35
2024-02-13T00:50:14.073Z,28.35
2024-02-13T00:51:14.016Z,28.33
2024-02-13T00:52:14.031Z,28.35
2024-02-13T00:53:14.036Z,28.35
2024-02-13T00:54:14.039Z,28.35
2024-02-13T00:55:14.018Z,28.33
2024-02-13T00:56:14.136Z,28.36
2024-02-13T00:57:14.102Z,28.35
2024-02-13T00:58:14.099Z,28.35
2024-02-13T00:59:14.247Z,28.34
2024-02-13T01:00:14.180Z,28.37
2024-02-13T01:01:14.367Z,28.35
2024-02-13T01:02:14.241Z,28.36
2024-02-13T01:03:14.140Z,28.34
2024-02-13T01:04:14.201Z,28.36
2024-02-13T01:05:14.289Z,28.34
2024-02-13T01:06:14.222Z,28.35
2024-02-13T01:07:14.216Z,28.35
2024-02-13T01:08:14.235Z,28.34
2024-02-13T01:09:14.214Z,28.36
2024-02-13T01:10:14.256Z,28.35
2024-02-13T01:11:14.286Z,28.33
2024-02-13T01:12:14.267Z,28.36
2024-02-13T01:13:14.279Z,28.35
2024-02-13T01:14:14.298Z,28.34
2024-02-13T01:15:14.299Z,28.35
2024-02-13T01:16:14.332Z,28.36
2024-02-13T01:17:14.391Z,28.36
2024-02-13T01:18:14.381Z,28.36
2024-02-13T01:19:14.727Z,28.33
2024-02-13T01:20:14.373Z,28.38
2024-02-13T01:21:14.378Z,28.36
2024-02-13T01:22:14.368Z,28.35
2024-02-13T01:23:14.435Z,28.36
2024-02-13T01:24:14.405Z,28.37
2024-02-13T01:25:14.413Z,28.37
2024-02-13T01:26:14.479Z,28.37
2024-02-13T01:27:14.455Z,28.36
2024-02-13T01:28:14.450Z,28.37
2024-02-13T01:29:14.520Z,28.36
2024-02-13T01:30:14.508Z,28.35
2024-02-13T01:31:14.540Z,28.36
2024-02-13T01:32:14.563Z,28.36
2024-02-13T01:33:14.745Z,28.34
2024-02-13T01:34:14.681Z,28.37
2024-02-13T01:35:14.824Z,28.37
2024-02-13T01:36:14.562Z,28.38
2024-02-13T01:37:14.684Z,28.39
2024-02-13T01:38:14.642Z,28.36
2024-02-13T01:39:14.646Z,28.38
2024-02-13T01:40:14.671Z,28.36
2024-02-13T01:41:14.739Z,28.38
2024-02-13T01:42:14.712Z,28.37
2024-02-13T01:43:14.729Z,28.37
2024-02-13T01:44:14.835Z,28.38
2024-02-13T01:45:14.787Z,28.38
2024-02-13T01:46:14.781Z,28.38
2024-02-13T01:47:14.882Z,28.36
2024-02-13T01:48:14.942Z,28.38
2024-02-13T01:49:14.865Z,28.39
2024-02-13T01:50:14.937Z,28.37
2024-02-13T01:51:14.890Z,28.38
2024-02-13T01:52:14.927Z,28.38
2024-02-13T01:53:14.985Z,28.37
2024-02-13T01:54:14.891Z,28.37
2024-02-13T01:55:14.934Z,28.38
2024-02-13T01:56:14.988Z,28.38
2024-02-13T01:57:14.969Z,28.38
2024-02-13T01:58:14.979Z,28.40
2024-02-13T01:59:15.021Z,28.39
2024-02-13T02:00:15.072Z,28.39
2024-02-13T02:01:15.070Z,28.38
2024-02-13T02:02:15.113Z,28.39
2024-02-13T02:03:15.138Z,28.39
2024-02-13T02:04:15.255Z,28.39
2024-02-13T02:05:15.388Z,28.38
2024-02-13T02:06:15.277Z,28.37
2024-02-13T02:07:15.224Z,28.40
2024-02-13T02:08:15.395Z,28.42
2024-02-13T02:09:15.240Z,28.38
2024-02-13T02:10:15.280Z,28.41
2024-02-13T02:11:15.345Z,28.40
2024-02-13T02:12:15.291Z,28.41
2024-02-13T02:13:15.347Z,28.39
2024-02-13T02:14:15.394Z,28.40
2024-02-13T02:15:15.399Z,28.39
2024-02-13T02:16:15.391Z,28.39
2024-02-13T02:17:15.463Z,28.38
2024-02-13T02:18:15.578Z,28.40
2024-02-13T02:19:15.760Z,28.39
2024-02-13T02:20:15.516Z,28.40
2024-02-13T02:21:15.488Z,28.39
2024-02-13T02:22:15.527Z,28.40
2024-02-13T02:23:15.633Z,28.39
2024-02-13T02:24:15.609Z,28.40
2024-02-13T02:25:15.608Z,28.38
2024-02-13T02:26:15.602Z,28.39
2024-02-13T02:27:15.718Z,28.41
2024-02-13T02:28:15.690Z,28.37
2024-02-13T02:29:15.744Z,28.41
2024-02-13T02:30:15.705Z,28.40
2024-02-13T02:31:15.746Z,28.41
2024-02-13T02:32:15.795Z,28.41
2024-02-13T02:33:16.102Z,28.40
2024-02-13T02:34:15.899Z,28.42
2024-02-13T02:35:15.863Z,28.40
2024-02-13T02:36:15.943Z,28.42
2024-02-13T02:37:15.886Z,28.41
2024-02-13T02:38:15.983Z,28.42
2024-02-13T02:39:15.950Z,28.41
2024-02-13T02:40:16.020Z,28.41
2024-02-13T02:41:16.135Z,28.40
2024-02-13T02:42:16.044Z,28.40
2024-02-13T02:43:16.123Z,28.42
2024-02-13T02:44:16.175Z,28.41
2024-02-13T02:45:16.098Z,28.43
2024-02-13T02:46:16.168Z,28.41
2024-02-13T02:47:16.252Z,28.43
2024-02-13T02:48:16.540Z,28.42
2024-02-13T02:49:16.291Z,28.42
2024-02-13T02:50:16.335Z,28.41
2024-02-13T02:51:16.293Z,28.42
2024-02-13T02:52:16.342Z,28.43
2024-02-13T02:53:19.205Z,28.43
2024-02-13T02:54:16.358Z,28.43
2024-02-13T02:55:16.390Z,28.40
2024-02-13T02:56:16.421Z,28.41
2024-02-13T02:57:16.357Z,28.42
2024-02-13T02:58:16.397Z,28.43
2024-02-13T02:59:16.380Z,28.43
2024-02-13T03:00:16.412Z,28.44
2024-02-13T03:01:16.398Z,28.44
2024-02-13T03:02:16.470Z,28.43
2024-02-13T03:03:16.431Z,28.43
2024-02-13T03:04:16.411Z,28.43
2024-02-13T03:05:16.401Z,28.43
2024-02-13T03:06:16.465Z,28.44
2024-02-13T03:07:16.414Z,28.43
2024-02-13T03:08:16.452Z,28.45
2024-02-13T03:09:16.404Z,28.45
2024-02-13T03:10:16.432Z,28.43
2024-02-13T03:11:16.415Z,28.43
2024-02-13T03:12:16.403Z,28.44
2024-02-13T03:13:16.396Z,28.43
2024-02-13T03:14:16.436Z,28.44
2024-02-13T03:15:16.407Z,28.43
2024-02-13T03:16:16.409Z,28.44
2024-02-13T03:17:16.439Z,28.45
2024-02-13T03:18:16.641Z,28.43
2024-02-13T03:19:16.443Z,28.44
2024-02-13T03:20:16.467Z,28.44
2024-02-13T03:21:16.398Z,28.44
2024-02-13T03:22:16.392Z,28.44
2024-02-13T03:23:16.414Z,28.44
2024-02-13T03:24:16.399Z,28.44
2024-02-13T03:25:16.498Z,28.43
2024-02-13T03:26:16.498Z,28.43
2024-02-13T03:27:16.426Z,28.44
2024-02-13T03:28:16.407Z,28.45
2024-02-13T03:29:16.430Z,28.42
2024-02-13T03:30:16.453Z,28.44
2024-02-13T03:31:16.436Z,28.43
2024-02-13T03:32:16.461Z,28.46
2024-02-13T03:33:16.520Z,28.45
2024-02-13T03:34:16.485Z,28.48
2024-02-13T03:35:16.445Z,28.46
2024-02-13T03:36:16.432Z,28.44
2024-02-13T03:37:16.401Z,28.45
2024-02-13T03:38:16.520Z,28.45
2024-02-13T03:39:16.425Z,28.45
2024-02-13T03:40:16.475Z,28.43
2024-02-13T03:41:16.408Z,28.47
2024-02-13T03:42:16.444Z,28.45
2024-02-13T03:43:16.454Z,28.46
2024-02-13T03:44:16.439Z,28.45
2024-02-13T03:45:16.536Z,28.46
2024-02-13T03:46:16.549Z,28.44
2024-02-13T03:47:16.564Z,28.45
2024-02-13T03:48:16.721Z,28.46
2024-02-13T03:49:16.643Z,28.47
2024-02-13T03:50:16.692Z,28.45
2024-02-13T03:51:16.716Z,28.46
2024-02-13T03:52:16.730Z,28.45
2024-02-13T03:53:16.821Z,28.46
2024-02-13T03:54:16.838Z,28.46
2024-02-13T03:55:16.847Z,28.47
2024-02-13T03:56:16.956Z,28.46
2024-02-13T03:57:16.933Z,28.47
2024-02-13T03:58:16.945Z,28.47
2024-02-13T03:59:17.085Z,28.47
2024-02-13T04:00:17.004Z,28.47
2024-02-13T04:01:17.058Z,28.45
2024-02-13T04:02:17.154Z,28.47
2024-02-13T04:03:17.123Z,28.47
2024-02-13T04:04:17.224Z,28.47
2024-02-13T04:05:17.281Z,28.47
2024-02-13T04:06:17.349Z,28.48
2024-02-13T04:07:17.336Z,28.48
2024-02-13T04:08:17.349Z,28.46
2024-02-13T04:09:17.383Z,28.47
2024-02-13T04:10:17.456Z,28.48
2024-02-13T04:11:17.529Z,28.46
2024-02-13T04:12:17.533Z,28.46
2024-02-13T04:13:17.555Z,28.47
2024-02-13T04:14:17.648Z,28.49
2024-02-13T04:15:17.642Z,28.48
2024-02-13T04:16:17.685Z,28.49
2024-02-13T04:17:17.769Z,28.47
2024-02-13T04:18:17.811Z,28.48
2024-02-13T04:19:17.814Z,28.47
2024-02-13T04:20:18.007Z,28.48
2024-02-13T04:21:17.885Z,28.50
2024-02-13T04:22:17.967Z,28.48
2024-02-13T04:23:18.093Z,28.47
2024-02-13T04:24:18.057Z,28.49
2024-02-13T04:25:18.043Z,28.47
2024-02-13T04:26:35.709Z,28.51
2024-02-13T04:27:26.228Z,28.52
2024-02-13T04:28:25.193Z,28.51
2024-02-13T04:29:25.249Z,28.49
2024-02-13T04:30:25.198Z,28.48
2024-02-13T04:31:32.346Z,28.53
2024-02-13T04:32:32.434Z,28.52
2024-02-13T04:33:32.448Z,28.51
2024-02-13T04:34:32.610Z,28.51
2024-02-13T04:35:32.371Z,28.51
2024-02-13T04:36:32.359Z,28.50
2024-02-13T04:37:32.335Z,28.48
2024-02-13T04:38:32.356Z,28.49
2024-02-13T04:39:32.326Z,28.51
2024-02-13T04:40:32.332Z,28.51
2024-02-13T04:41:32.343Z,28.50
2024-02-13T04:42:32.369Z,28.52
2024-02-13T04:43:32.358Z,28.51
2024-02-13T04:44:32.396Z,28.52
2024-02-13T04:45:32.373Z,28.51
2024-02-13T04:46:32.377Z,28.52
2024-02-13T04:47:32.518Z,28.51
2024-02-13T04:48:32.586Z,28.51
2024-02-13T04:49:32.412Z,28.50
2024-02-13T04:50:32.369Z,28.48
2024-02-13T04:51:32.368Z,28.52
2024-02-13T04:52:32.337Z,28.51
2024-02-13T04:53:32.389Z,28.51
2024-02-13T04:54:32.372Z,28.51
2024-02-13T04:55:32.367Z,28.50
2024-02-13T04:56:32.391Z,28.50
2024-02-13T04:57:32.347Z,28.50
2024-02-13T04:58:32.355Z,28.51
2024-02-13T04:59:32.434Z,28.51
2024-02-13T05:00:32.427Z,28.51
2024-02-13T05:01:32.519Z,28.50
2024-02-13T05:02:32.607Z,28.53
2024-02-13T05:03:32.666Z,28.56
2024-02-13T05:04:33.782Z,28.53
2024-02-13T05:05:32.749Z,28.50
2024-02-13T05:06:32.834Z,28.46
2024-02-13T05:07:32.822Z,28.48
2024-02-13T05:08:32.929Z,28.41
2024-02-13T05:09:32.946Z,28.39
2024-02-13T05:10:32.966Z,28.39
2024-02-13T05:11:33.101Z,28.34
2024-02-13T05:12:33.137Z,28.34
2024-02-13T05:13:33.180Z,28.30
2024-02-13T05:14:33.264Z,28.28
2024-02-13T05:15:33.287Z,28.21
2024-02-13T05:16:33.404Z,28.23
2024-02-13T05:17:33.564Z,28.19
2024-02-13T05:18:33.707Z,28.13
2024-02-13T05:19:33.590Z,28.12
2024-02-13T05:20:33.610Z,28.09
2024-02-13T05:21:33.650Z,28.04
2024-02-13T05:22:33.700Z,28.00
2024-02-13T05:23:33.812Z,28.00
2024-02-13T05:24:33.820Z,27.94
2024-02-13T05:25:33.827Z,27.91
2024-02-13T05:26:34.036Z,27.91
2024-02-13T05:27:33.958Z,27.89
2024-02-13T05:28:33.990Z,27.82
2024-02-13T05:29:34.060Z,27.86
2024-02-13T05:30:34.099Z,27.80
2024-02-13T05:31:34.140Z,27.77
2024-02-13T05:32:34.302Z,27.78
2024-02-13T05:33:34.349Z,27.76
2024-02-13T05:34:34.315Z,27.77
2024-02-13T05:35:34.419Z,27.74
2024-02-13T05:36:34.458Z,27.73
2024-02-13T05:37:34.473Z,27.73
2024-02-13T05:38:34.552Z,27.69
2024-02-13T05:39:34.635Z,27.69
2024-02-13T05:40:37.098Z,27.68
2024-02-13T05:41:34.734Z,27.68
2024-02-13T05:42:34.700Z,27.68
2024-02-13T05:43:34.677Z,27.66
2024-02-13T05:44:34.738Z,27.68
2024-02-13T05:45:34.677Z,27.68
2024-02-13T05:46:34.701Z,27.68
2024-02-13T05:47:34.825Z,27.66
2024-02-13T05:48:34.697Z,27.67
2024-02-13T05:49:34.719Z,27.67
2024-02-13T05:50:34.714Z,27.68
2024-02-13T05:51:34.657Z,27.68
2024-02-13T05:52:34.669Z,27.68
2024-02-13T05:53:34.754Z,27.66
2024-02-13T05:54:34.777Z,27.67
2024-02-13T05:55:34.694Z,27.65
2024-02-13T05:56:34.686Z,27.67
2024-02-13T05:57:34.710Z,27.67
2024-02-13T05:58:34.713Z,27.65
2024-02-13T05:59:34.693Z,27.65
2024-02-13T06:00:34.774Z,27.65
2024-02-13T06:01:34.717Z,27.67
2024-02-13T06:02:34.775Z,27.68
2024-02-13T06:03:34.769Z,27.68
2024-02-13T06:04:34.752Z,27.66
2024-02-13T06:05:34.985Z,27.68
2024-02-13T06:06:34.842Z,27.69
2024-02-13T06:07:34.705Z,27.68
2024-02-13T06:08:34.810Z,27.70
2024-02-13T06:09:34.731Z,27.67
2024-02-13T06:10:34.755Z,27.69
2024-02-13T06:11:34.838Z,27.70
2024-02-13T06:12:34.832Z,27.69
2024-02-13T06:13:35.169Z,27.72
2024-02-13T06:14:34.937Z,27.70
2024-02-13T06:15:35.040Z,27.71
2024-02-13T06:16:35.080Z,27.72
2024-02-13T06:17:35.266Z,27.73
2024-02-13T06:18:35.428Z,27.74
2024-02-13T06:19:35.307Z,27.72
2024-02-13T06:20:35.349Z,27.73
2024-02-13T06:21:35.365Z,27.75
2024-02-13T06:22:35.493Z,27.75
2024-02-13T06:23:35.599Z,27.74
2024-02-13T06:24:35.604Z,27.74
2024-02-13T06:25:35.665Z,27.75
2024-02-13T06:26:35.761Z,27.76
2024-02-13T06:27:35.754Z,27.74
2024-02-13T06:28:35.862Z,27.76
2024-02-13T06:29:35.938Z,27.76
2024-02-13T06:30:35.946Z,27.77
2024-02-13T06:31:36.019Z,27.77
2024-02-13T06:32:36.156Z,27.77
2024-02-13T06:33:36.319Z,27.78
2024-02-13T06:34:36.225Z,27.78
2024-02-13T06:35:36.255Z,27.79
2024-02-13T06:36:36.362Z,27.79
2024-02-13T06:37:36.376Z,27.79
2024-02-13T06:38:36.732Z,27.80
2024-02-13T06:39:36.528Z,27.80
2024-02-13T06:40:36.656Z,27.78
2024-02-13T06:41:36.682Z,27.80
2024-02-13T06:42:36.700Z,27.81
2024-02-13T06:43:36.757Z,27.81
2024-02-13T06:44:36.898Z,27.81
2024-02-13T06:45:36.893Z,27.82
2024-02-13T06:46:37.043Z,27.82
2024-02-13T06:47:37.075Z,27.82
2024-02-13T06:48:37.149Z,27.82
2024-02-13T06:49:37.195Z,27.81
2024-02-13T06:50:37.274Z,27.82
2024-02-13T06:51:37.318Z,27.82
2024-02-13T06:52:37.345Z,27.83
2024-02-13T06:53:37.458Z,27.83
2024-02-13T06:54:37.489Z,27.83
2024-02-13T06:55:37.570Z,27.84
2024-02-13T06:56:37.707Z,27.85
2024-02-13T06:57:37.743Z,27.84
2024-02-13T06:58:37.776Z,27.85
2024-02-13T06:59:37.844Z,27.84
2024-02-13T07:00:37.928Z,27.83
2024-02-13T07:01:37.944Z,27.84
2024-02-13T07:02:38.223Z,27.84
2024-02-13T07:03:38.157Z,27.84
2024-02-13T07:04:38.145Z,27.85
2024-02-13T07:05:38.216Z,27.83
2024-02-13T07:06:48.437Z,27.85
2024-02-13T07:07:46.226Z,27.84
2024-02-13T07:08:39.422Z,27.85
2024-02-13T07:09:38.407Z,27.85
2024-02-13T07:10:38.353Z,27.84
2024-02-13T07:11:38.290Z,27.84
2024-02-13T07:12:38.268Z,27.82
2024-02-13T07:13:38.233Z,27.83
2024-02-13T07:14:38.316Z,27.83
2024-02-13T07:15:38.406Z,27.81
2024-02-13T07:16:41.013Z,27.81
2024-02-13T07:17:48.523Z,27.83
2024-02-13T07:18:39.385Z,27.83
2024-02-13T07:19:38.363Z,27.81
2024-02-13T07:20:38.336Z,27.83
2024-02-13T07:21:38.290Z,27.85
2024-02-13T07:22:38.432Z,27.86
2024-02-13T07:23:38.302Z,27.83
2024-02-13T07:24:38.270Z,27.82
2024-02-13T07:25:38.299Z,27.84
2024-02-13T07:26:38.295Z,27.83
2024-02-13T07:27:38.309Z,27.84
2024-02-13T07:28:38.412Z,27.83
2024-02-13T07:29:38.457Z,27.86
2024-02-13T07:30:38.507Z,27.85
2024-02-13T07:31:38.565Z,27.85
2024-02-13T07:32:38.677Z,27.84
2024-02-13T07:33:38.853Z,27.86
2024-02-13T07:34:38.758Z,27.87
2024-02-13T07:35:38.838Z,27.87
2024-02-13T07:36:38.879Z,27.86
2024-02-13T07:37:38.913Z,27.86
2024-02-13T07:38:39.037Z,27.86
2024-02-13T07:39:39.088Z,27.87
2024-02-13T07:40:39.139Z,27.87
2024-02-13T07:41:39.226Z,27.89
2024-02-13T07:42:39.250Z,27.88
2024-02-13T07:43:39.326Z,27.88
2024-02-13T07:44:39.409Z,27.87
2024-02-13T07:45:39.441Z,27.88
2024-02-13T07:46:39.474Z,27.90
2024-02-13T07:47:39.639Z,27.88
2024-02-13T07:48:40.152Z,27.90
2024-02-13T07:49:39.678Z,27.90
2024-02-13T07:50:39.717Z,27.90
2024-02-13T07:51:39.787Z,27.91
2024-02-13T07:52:39.940Z,27.90
2024-02-13T07:53:39.999Z,27.90
2024-02-13T07:54:40.016Z,27.90
2024-02-13T07:55:40.037Z,27.91
2024-02-13T07:56:40.193Z,27.91
2024-02-13T07:57:40.203Z,27.92
2024-02-13T07:58:40.243Z,27.90
2024-02-13T07:59:40.339Z,27.92
2024-02-13T08:00:40.443Z,27.91
2024-02-13T08:01:40.437Z,27.91
2024-02-13T08:02:40.550Z,27.91
2024-02-13T08:03:40.620Z,27.92
2024-02-13T08:04:40.686Z,27.92
2024-02-13T08:05:40.892Z,27.92
2024-02-13T08:06:40.799Z,27.93
2024-02-13T08:07:40.829Z,27.92
2024-02-13T08:08:40.863Z,27.93
2024-02-13T08:09:40.936Z,27.94
2024-02-13T08:10:41.002Z,27.94
2024-02-13T08:11:41.088Z,27.92
2024-02-13T08:12:41.091Z,27.93
2024-02-13T08:13:41.156Z,27.91
2024-02-13T08:14:41.358Z,27.91
2024-02-13T08:15:41.265Z,27.93
2024-02-13T08:16:41.407Z,27.92
2024-02-13T08:17:41.598Z,27.93
2024-02-13T08:18:41.599Z,27.92
2024-02-13T08:19:42.118Z,27.92
2024-02-13T08:20:41.678Z,27.90
2024-02-13T08:21:41.681Z,27.90
2024-02-13T08:22:41.737Z,27.90
2024-02-13T08:23:41.820Z,27.89
2024-02-13T08:24:41.969Z,27.89
2024-02-13T08:25:41.939Z,27.86
2024-02-13T08:26:42.040Z,27.88
2024-02-13T08:27:42.009Z,27.86
2024-02-13T08:28:42.075Z,27.87
2024-02-13T08:29:42.161Z,27.85
2024-02-13T08:30:42.197Z,27.86
2024-02-13T08:31:42.272Z,27.83
2024-02-13T08:32:42.537Z,27.81
2024-02-13T08:33:42.695Z,27.79
2024-02-13T08:34:42.578Z,27.78
2024-02-13T08:35:42.668Z,27.76
2024-02-13T08:36:42.503Z,27.74
2024-02-13T08:37:42.553Z,27.70
2024-02-13T08:38:42.625Z,27.67
2024-02-13T08:39:42.637Z,27.62
2024-02-13T08:40:42.714Z,27.56
2024-02-13T08:41:42.789Z,27.53
2024-02-13T08:42:42.754Z,27.48
2024-02-13T08:43:42.813Z,27.48
2024-02-13T08:44:42.861Z,27.47
2024-02-13T08:45:42.926Z,27.45
2024-02-13T08:46:42.875Z,27.41
2024-02-13T08:47:43.085Z,27.41
2024-02-13T08:48:43.209Z,27.39
2024-02-13T08:49:43.046Z,27.34
2024-02-13T08:50:43.052Z,27.34
2024-02-13T08:51:43.165Z,27.33
2024-02-13T08:52:43.025Z,27.30
2024-02-13T08:53:43.125Z,27.30
2024-02-13T08:54:43.037Z,27.28
2024-02-13T08:55:43.078Z,27.26
2024-02-13T08:56:43.123Z,27.25
2024-02-13T08:57:43.129Z,27.22
2024-02-13T08:58:43.156Z,27.22
2024-02-13T08:59:43.221Z,27.23
2024-02-13T09:00:43.196Z,27.23
2024-02-13T09:01:43.181Z,27.22
2024-02-13T09:02:43.279Z,27.22
2024-02-13T09:03:43.239Z,27.23
2024-02-13T09:04:43.323Z,27.23
2024-02-13T09:05:43.377Z,27.24
2024-02-13T09:06:43.413Z,27.23
2024-02-13T09:07:43.301Z,27.22
2024-02-13T09:08:43.647Z,27.24
2024-02-13T09:09:43.294Z,27.22
2024-02-13T09:10:43.319Z,27.25
2024-02-13T09:11:43.362Z,27.25
2024-02-13T09:12:43.406Z,27.24
2024-02-13T09:13:43.507Z,27.25
2024-02-13T09:14:43.470Z,27.25
2024-02-13T09:15:43.389Z,27.24
2024-02-13T09:16:43.424Z,27.24
2024-02-13T09:17:43.526Z,27.24
2024-02-13T09:18:43.636Z,27.22
2024-02-13T09:19:43.484Z,27.21
2024-02-13T09:20:43.445Z,27.18
2024-02-13T09:21:43.470Z,27.13
2024-02-13T09:22:43.472Z,27.08
2024-02-13T09:23:43.526Z,27.06
2024-02-13T09:24:43.469Z,27.06
2024-02-13T09:25:43.545Z,26.98
2024-02-13T09:26:43.635Z,26.93
2024-02-13T09:27:43.613Z,26.83
2024-02-13T09:28:43.728Z,26.75
2024-02-13T09:29:43.820Z,26.74
2024-02-13T09:30:43.889Z,26.64
2024-02-13T09:31:46.349Z,26.59
2024-02-13T09:32:44.009Z,26.51
2024-02-13T09:33:44.065Z,26.50
2024-02-13T09:34:43.941Z,26.47
2024-02-13T09:35:43.974Z,26.47
2024-02-13T09:36:43.879Z,26.42
2024-02-13T09:37:44.685Z,26.42
2024-02-13T09:38:44.039Z,26.41
2024-02-13T09:39:43.949Z,26.42
2024-02-13T09:40:43.931Z,26.39
2024-02-13T09:41:43.975Z,26.38
2024-02-13T09:42:43.907Z,26.32
2024-02-13T09:43:45.867Z,26.23
2024-02-13T09:44:43.941Z,26.15
2024-02-13T09:45:43.919Z,26.05
2024-02-13T09:46:43.884Z,25.98
2024-02-13T09:47:44.019Z,25.88
2024-02-13T09:48:44.001Z,25.82
2024-02-13T09:49:44.751Z,25.74
2024-02-13T09:50:43.996Z,25.61
2024-02-13T09:51:43.932Z,25.55
2024-02-13T09:52:43.878Z,25.45
2024-02-13T09:53:44.130Z,25.40
2024-02-13T09:54:44.149Z,25.32
2024-02-13T09:55:44.400Z,25.17
2024-02-13T09:56:44.048Z,25.09
2024-02-13T09:57:43.923Z,25.03
2024-02-13T09:58:43.906Z,25.11
2024-02-13T09:59:43.944Z,24.92
2024-02-13T10:00:43.921Z,24.85
2024-02-13T10:01:43.938Z,24.80
2024-02-13T10:02:44.033Z,24.82
2024-02-13T10:03:44.187Z,24.71
2024-02-13T10:04:44.008Z,24.62
2024-02-13T10:05:43.982Z,24.63
2024-02-13T10:06:43.946Z,24.51
2024-02-13T10:07:45.355Z,24.49
2024-02-13T10:08:44.003Z,24.42
2024-02-13T10:09:43.952Z,24.34
2024-02-13T10:10:43.970Z,24.28
2024-02-13T10:11:43.991Z,24.33
2024-02-13T10:12:43.920Z,24.24
2024-02-13T10:13:47.237Z,24.24
2024-02-13T10:14:43.960Z,24.19
2024-02-13T10:15:44.015Z,24.14
2024-02-13T10:16:43.933Z,24.04
2024-02-13T10:17:43.995Z,24.04
2024-02-13T10:18:44.086Z,24.02
2024-02-13T10:19:43.972Z,23.95
2024-02-13T10:20:43.979Z,23.92
2024-02-13T10:21:43.979Z,23.89
2024-02-13T10:22:43.926Z,23.86
2024-02-13T10:23:44.132Z,23.79
2024-02-13T10:24:43.962Z,23.74
2024-02-13T10:25:43.929Z,23.76
2024-02-13T10:26:44.072Z,23.69
2024-02-13T10:27:43.929Z,23.68
2024-02-13T10:28:43.985Z,23.64
2024-02-13T10:29:43.991Z,23.60
2024-02-13T10:30:43.929Z,23.57
2024-02-13T10:31:46.396Z,23.53
2024-02-13T10:32:44.035Z,23.54
2024-02-13T10:33:43.997Z,23.49
2024-02-13T10:34:44.047Z,23.45
2024-02-13T10:35:44.038Z,23.43
2024-02-13T10:36:43.932Z,23.37
2024-02-13T10:37:43.930Z,23.35
2024-02-13T10:38:43.981Z,23.31
2024-02-13T10:39:43.960Z,23.28
2024-02-13T10:40:43.952Z,23.28
2024-02-13T10:41:43.972Z,23.23
2024-02-13T10:42:43.951Z,23.15
2024-02-13T10:43:43.988Z,23.16
2024-02-13T10:44:44.049Z,23.10
2024-02-13T10:45:43.973Z,23.06
2024-02-13T10:46:43.998Z,23.04
2024-02-13T10:47:44.007Z,23.03
2024-02-13T10:48:44.046Z,22.97
2024-02-13T10:49:44.282Z,22.94
2024-02-13T10:50:44.050Z,22.92
2024-02-13T10:51:43.969Z,22.88
2024-02-13T10:52:43.969Z,22.87
2024-02-13T10:53:44.051Z,22.80
2024-02-13T10:54:43.973Z,22.77
2024-02-13T10:55:44.308Z,22.78
2024-02-13T10:56:44.043Z,22.82
2024-02-13T10:57:43.964Z,22.83
2024-02-13T10:58:43.933Z,22.79
2024-02-13T10:59:44.016Z,22.77
2024-02-13T11:00:44.038Z,22.72
2024-02-13T11:01:44.078Z,22.70
2024-02-13T11:02:43.991Z,22.66
2024-02-13T11:03:44.346Z,22.60
2024-02-13T11:04:43.960Z,22.59
2024-02-13T11:05:44.048Z,22.49
2024-02-13T11:06:44.056Z,22.48
2024-02-13T11:07:44.111Z,22.48
2024-02-13T11:08:43.977Z,22.41
2024-02-13T11:09:43.998Z,22.40
2024-02-13T11:10:43.994Z,22.37
2024-02-13T11:11:44.023Z,22.32
2024-02-13T11:12:43.963Z,22.36
2024-02-13T11:13:43.989Z,22.29
2024-02-13T11:14:43.969Z,22.29
2024-02-13T11:15:44.024Z,22.26
2024-02-13T11:16:43.995Z,22.24
2024-02-13T11:17:44.084Z,22.21
2024-02-13T11:18:44.100Z,22.20
2024-02-13T11:19:46.284Z,22.16
2024-02-13T11:20:44.059Z,22.14
2024-02-13T11:21:43.975Z,22.13
2024-02-13T11:22:43.992Z,22.11
2024-02-13T11:23:44.031Z,22.10
2024-02-13T11:24:43.977Z,22.07
2024-02-13T11:25:44.131Z,22.07
2024-02-13T11:26:44.029Z,22.07
2024-02-13T11:27:44.218Z,22.03
2024-02-13T11:28:44.003Z,22.05
2024-02-13T11:29:44.017Z,22.06
2024-02-13T11:30:43.987Z,22.04
2024-02-13T11:31:45.539Z,22.06
2024-02-13T11:32:44.270Z,22.06
2024-02-13T11:33:44.245Z,22.09
2024-02-13T11:34:44.662Z,22.10
2024-02-13T11:35:44.107Z,22.08
2024-02-13T11:36:44.049Z,22.11
2024-02-13T11:37:44.026Z,22.14
2024-02-13T11:38:44.046Z,22.16
2024-02-13T11:39:44.031Z,22.17
2024-02-13T11:40:43.989Z,22.15
2024-02-13T11:41:44.071Z,22.17
2024-02-13T11:42:43.996Z,22.17
2024-02-13T11:43:44.009Z,22.16
2024-02-13T11:44:43.993Z,22.18
2024-02-13T11:45:44.024Z,22.18
2024-02-13T11:46:44.222Z,22.21
2024-02-13T11:47:44.044Z,22.27
2024-02-13T11:48:44.218Z,22.29
2024-02-13T11:49:44.203Z,22.29
2024-02-13T11:50:44.046Z,22.27
2024-02-13T11:51:44.013Z,22.20
2024-02-13T11:52:44.040Z,22.15
2024-02-13T11:53:44.127Z,22.11
2024-02-13T11:54:44.035Z,22.06
2024-02-13T11:55:43.997Z,22.04
2024-02-13T11:56:44.116Z,22.06
2024-02-13T11:57:44.042Z,22.14
2024-02-13T11:58:44.090Z,22.25
2024-02-13T11:59:44.452Z,22.31
2024-02-13T12:00:44.027Z,22.42
2024-02-13T12:01:44.040Z,22.44
2024-02-13T12:02:44.058Z,22.38
2024-02-13T12:03:44.262Z,22.28
2024-02-13T12:04:44.268Z,22.21
2024-02-13T12:05:44.149Z,22.13
2024-02-13T12:06:44.178Z,22.08
2024-02-13T12:07:44.238Z,22.06
2024-02-13T12:08:44.270Z,22.01
2024-02-13T12:09:44.208Z,22.03
2024-02-13T12:10:44.201Z,22.02
2024-02-13T12:11:44.320Z,22.04
2024-02-13T12:12:44.248Z,22.06
2024-02-13T12:13:44.275Z,22.05
2024-02-13T12:14:44.293Z,22.07
2024-02-13T12:15:44.298Z,22.09
2024-02-13T12:16:44.278Z,22.12
2024-02-13T12:17:44.327Z,22.11
2024-02-13T12:18:44.431Z,22.13
2024-02-13T12:19:44.406Z,22.15
2024-02-13T12:20:44.361Z,22.18
2024-02-13T12:21:44.406Z,22.20
2024-02-13T12:22:44.433Z,22.26
2024-02-13T12:23:44.472Z,22.29
2024-02-13T12:24:44.457Z,22.32
2024-02-13T12:25:44.443Z,22.34
2024-02-13T12:26:44.545Z,22.37
2024-02-13T12:27:44.562Z,22.40
2024-02-13T12:28:44.585Z,22.44
2024-02-13T12:29:44.709Z,22.43
2024-02-13T12:30:44.641Z,22.47
2024-02-13T12:31:44.643Z,22.45
2024-02-13T12:32:44.832Z,22.50
2024-02-13T12:33:44.811Z,22.48
2024-02-13T12:34:44.868Z,22.58
2024-02-13T12:35:44.790Z,22.57
2024-02-13T12:36:44.808Z,22.60
2024-02-13T12:37:44.831Z,22.63
2024-02-13T12:38:44.867Z,22.68
2024-02-13T12:39:44.868Z,22.68
2024-02-13T12:40:44.919Z,22.71
2024-02-13T12:41:44.998Z,22.70
2024-02-13T12:42:44.991Z,22.74
2024-02-13T12:43:45.024Z,22.76
2024-02-13T12:44:45.050Z,22.77
2024-02-13T12:45:45.098Z,22.79
2024-02-13T12:46:45.125Z,22.81
2024-02-13T12:47:45.390Z,22.83
2024-02-13T12:48:45.325Z,22.86
2024-02-13T12:49:45.590Z,22.87
2024-02-13T12:50:45.537Z,22.89
2024-02-13T12:51:45.429Z,22.89
2024-02-13T12:52:45.447Z,22.91